Time;durP1;ratioP1;P1;durP2;ratioP2;P2;SDS_P1;SDS_P2;PMS_P1;PMS_P2;Temp;Humidity;BMP_temperature;BMP_pressure;BME280_temperature;BME280_humidity;BME280_pressure;Samples;Min_cycle;Max_cycle;Signal;HPM_P1;HPM_P2
2022/04/17 00:00:23;;;;;;;8.13;3.13;;;205.50;1894.40;;;;;;5018467;28;19905;-84
2022/04/17 00:02:49;;;;;;;4.63;2.38;;;205.50;1894.40;;;;;;5018777;28;20033;-84
2022/04/17 00:05:15;;;;;;;;;;;205.70;1868.80;;;;;;5015360;28;20071;-83
2022/04/17 00:07:41;;;;;;;5.72;2.30;;;205.70;1868.80;;;;;;5017873;28;19912;-84
2022/04/17 00:10:08;;;;;;;;;;;205.70;1843.20;;;;;;5018221;28;20027;-84
2022/04/17 00:12:34;;;;;;;6.65;2.55;;;205.60;1843.20;;;;;;5035084;28;19919;-84
2022/04/17 00:15:00;;;;;;;;;;;205.70;1817.60;;;;;;5018075;28;20388;-84
2022/04/17 00:17:26;;;;;;;4.10;2.28;;;205.50;1843.20;;;;;;5017508;28;19944;-84
2022/04/17 00:19:52;;;;;;;5.85;2.45;;;205.60;1843.20;;;;;;5017535;28;20028;-85
2022/04/17 00:22:17;;;;;;;;;;;205.50;1843.20;;;;;;5017713;28;20022;-84
2022/04/17 00:24:43;;;;;;;4.90;2.35;;;205.60;1843.20;;;;;;5017397;28;20337;-84
2022/04/17 00:27:09;;;;;;;;;;;205.50;1843.20;;;;;;5017618;28;20030;-82
2022/04/17 00:29:35;;;;;;;7.20;2.38;;;205.40;1843.20;;;;;;5017581;28;19905;-83
2022/04/17 00:32:02;;;;;;;4.57;2.20;;;205.40;1843.20;;;;;;5016943;28;20036;-84
2022/04/17 00:34:29;;;;;;;4.00;2.25;;;205.30;1843.20;;;;;;5017324;28;20030;-84
2022/04/17 00:36:59;;;;;;;6.15;2.45;;;205.30;1843.20;;;;;;5016744;28;20075;-84
2022/04/17 00:39:25;;;;;;;5.00;2.50;;;205.40;1868.80;;;;;;5034641;28;20018;-84
2022/04/17 00:41:53;;;;;;;7.13;2.38;;;205.30;1843.20;;;;;;5016672;28;20033;-84
2022/04/17 00:44:19;;;;;;;4.80;2.53;;;205.30;1817.60;;;;;;5014863;28;20045;-84
2022/04/17 00:46:45;;;;;;;;;;;205.40;1817.60;;;;;;5017847;28;20390;-84
2022/04/17 00:49:11;;;;;;;5.53;2.58;;;205.30;1843.20;;;;;;5016931;28;19924;-84
2022/04/17 00:51:37;;;;;;;;;;;205.20;1843.20;;;;;;5016766;28;20037;-84
2022/04/17 00:54:04;;;;;;;5.57;2.10;;;205.20;1843.20;;;;;;5016972;28;19974;-83
2022/04/17 00:56:34;;;;;;;5.50;2.60;;;205.00;1868.80;;;;;;5034138;28;20088;-82
2022/04/17 00:59:02;;;;;;;3.90;1.92;;;205.00;1894.40;;;;;;5032452;28;20041;-84
2022/04/17 01:01:32;;;;;;;6.82;2.20;;;205.00;1894.40;;;;;;5035381;28;20085;-84
2022/04/17 01:03:59;;;;;;;4.57;2.22;;;204.90;1868.80;;;;;;5025847;28;20028;-84
2022/04/17 01:06:25;;;;;;;4.25;2.10;;;205.00;1868.80;;;;;;5033710;28;20029;-84
2022/04/17 01:08:51;;;;;;;7.63;2.67;;;205.10;1868.80;;;;;;5034105;28;20091;-85
2022/04/17 01:11:17;;;;;;;;;;;205.00;1843.20;;;;;;5034273;28;20485;-84
2022/04/17 01:13:43;;;;;;;4.10;2.38;;;205.00;1868.80;;;;;;5033623;28;19952;-84
2022/04/17 01:16:16;;;;;;;4.72;2.30;;;204.80;1868.80;;;;;;5034184;28;20014;-85
2022/04/17 01:18:55;;;;;;;5.10;2.58;;;204.80;1894.40;;;;;;5011492;28;20113;-84
2022/04/17 01:21:21;;;;;;;4.10;2.40;;;180.10;1894.40;;;;;;5011315;28;20456;-85
2022/04/17 01:29:17;;;;;;;4.55;2.30;;;204.80;1894.40;;;;;;5034023;28;20389;-85
2022/04/17 01:31:43;;;;;;;5.13;2.10;;;180.10;1894.40;;;;;;5015939;28;20040;-84
2022/04/17 01:34:09;;;;;;;;;;;180.10;1920.00;;;;;;5016523;28;20017;-84
2022/04/17 01:36:34;;;;;;;4.72;2.20;;;180.10;1920.00;;;;;;5015462;28;20001;-84
2022/04/17 01:39:00;;;;;;;;;;;180.00;1945.60;;;;;;5015616;28;20382;-84
2022/04/17 01:41:26;;;;;;;4.80;2.55;;;180.00;1945.60;;;;;;5015751;28;19996;-84
2022/04/17 01:43:51;;;;;;;;;;;179.90;1971.20;;;;;;5016791;28;20022;-84
2022/04/17 01:46:17;;;;;;;5.70;2.55;;;180.00;1971.20;;;;;;5015938;28;20381;-84
2022/04/17 01:48:43;;;;;;;;;;;179.80;1971.20;;;;;;5015821;28;20053;-84
2022/04/17 01:51:08;;;;;;;7.75;2.30;;;179.90;1996.80;;;;;;5015741;28;19956;-85
2022/04/17 01:53:34;;;;;;;;;;;179.90;1996.80;;;;;;5016204;28;20033;-85
2022/04/17 01:56:00;;;;;;;5.57;3.08;;;179.80;1996.80;;;;;;5015917;28;20323;-85
2022/04/17 01:58:26;;;;;;;;;;;179.70;2022.40;;;;;;5033787;28;20025;-85
2022/04/17 02:00:51;;;;;;;6.18;2.40;;;179.70;2022.40;;;;;;5015988;28;19909;-85
2022/04/17 02:03:17;;;;;;;;;;;179.70;2022.40;;;;;;5015911;28;20021;-84
2022/04/17 02:05:43;;;;;;;4.75;2.60;;;179.80;2022.40;;;;;;5016166;28;20276;-84
2022/04/17 02:08:08;;;;;;;;;;;179.80;2048.00;;;;;;5016177;28;20017;-85
2022/04/17 02:10:34;;;;;;;5.22;2.95;;;179.70;2048.00;;;;;;5015645;28;19905;-85
2022/04/17 02:13:00;;;;;;;;;;;179.70;2073.60;;;;;;5015600;28;20037;-84
2022/04/17 02:15:27;;;;;;;6.78;3.00;;;179.60;2099.20;;;;;;5015819;28;19951;-85
2022/04/17 02:17:52;;;;;;;14.85;3.00;;;179.60;2099.20;;;;;;5032896;28;20025;-84
2022/04/17 02:20:18;;;;;;;;;;;179.50;2150.40;;;;;;5015728;28;20072;-86
2022/04/17 02:22:45;;;;;;;6.25;3.80;;;179.50;2150.40;;;;;;5015418;28;19921;-85
2022/04/17 02:25:11;;;;;;;7.50;3.13;;;179.60;2150.40;;;;;;5015110;28;20029;-85
2022/04/17 02:27:37;;;;;;;;;;;179.60;2150.40;;;;;;5016077;28;20033;-85
2022/04/17 02:30:06;;;;;;;5.90;2.90;;;179.80;2150.40;;;;;;5012817;28;19905;-85
2022/04/17 02:32:32;;;;;;;5.47;2.55;;;179.70;2176.00;;;;;;5015416;28;20052;-84
2022/04/17 02:34:57;;;;;;;;;;;179.70;2150.40;;;;;;5015489;28;20477;-85
2022/04/17 02:37:23;;;;;;;6.05;2.92;;;179.50;2176.00;;;;;;5015640;28;19971;-81
2022/04/17 02:39:49;;;;;;;;;;;179.50;2201.60;;;;;;5016214;28;20034;-84
2022/04/17 02:42:14;;;;;;;6.25;3.38;;;179.60;2176.00;;;;;;5016071;28;20278;-83
2022/04/17 02:44:40;;;;;;;;;;;179.60;2150.40;;;;;;5016530;28;20140;-84
2022/04/17 02:48:06;;;;;;;7.18;3.55;;;179.60;2176.00;;;;;;5015498;28;19955;-85
2022/04/17 02:50:01;;;;;;;6.80;3.20;;;179.50;2176.00;;;;;;5014486;28;20107;-85
2022/04/17 02:52:27;;;;;;;8.48;3.05;;;179.40;2201.60;;;;;;5032510;28;20616;-85
2022/04/17 02:54:54;;;;;;;;;;;179.40;2201.60;;;;;;5016015;28;20053;-84
2022/04/17 02:57:20;;;;;;;6.25;3.00;;;179.40;2201.60;;;;;;5015828;28;19905;-83
2022/04/17 02:59:45;;;;;;;;;;;179.30;2201.60;;;;;;5015842;28;20079;-85
2022/04/17 03:07:39;;;;;;;4.68;2.65;;;179.30;2201.60;;;;;;5032780;28;20043;-85
2022/04/17 03:10:05;;;;;;;;;;;179.30;2201.60;;;;;;5033502;28;20025;-85
2022/04/17 03:12:31;;;;;;;6.70;3.22;;;179.20;2201.60;;;;;;5031863;28;19917;-84
2022/04/17 03:14:56;;;;;;;;;;;179.30;2201.60;;;;;;5036119;28;20454;-84
2022/04/17 03:17:22;;;;;;;6.53;3.15;;;179.40;2176.00;;;;;;5018568;28;20277;-84
2022/04/17 03:19:48;;;;;;;;;;;179.30;2201.60;;;;;;5019122;28;20025;-84
2022/04/17 03:22:14;;;;;;;5.50;2.67;;;179.40;2201.60;;;;;;5036302;28;19968;-83
2022/04/17 03:24:40;;;;;;;5.63;3.00;;;179.30;2201.60;;;;;;5019191;28;20030;-84
2022/04/17 03:27:06;;;;;;;;;;;179.20;2227.20;;;;;;5018837;28;20043;-84
2022/04/17 03:29:31;;;;;;;9.45;3.05;;;179.30;2227.20;;;;;;5019093;28;20371;-85
2022/04/17 03:31:57;;;;;;;;;;;179.30;2227.20;;;;;;5019019;28;20032;-85
2022/04/17 03:34:23;;;;;;;4.95;3.10;;;154.50;2252.80;;;;;;5018284;28;19999;-85
2022/04/17 03:36:48;;;;;;;;;;;154.50;2252.80;;;;;;5018497;28;20044;-85
2022/04/17 03:39:14;;;;;;;5.72;2.90;;;179.20;2227.20;;;;;;5018199;28;19905;-85
2022/04/17 03:41:40;;;;;;;;;;;179.20;2227.20;;;;;;5018766;28;20021;-86
2022/04/17 03:44:06;;;;;;;6.05;2.85;;;179.20;2227.20;;;;;;5017946;28;19980;-85
2022/04/17 03:46:33;;;;;;;;;;;154.50;2227.20;;;;;;5018758;28;20041;-86
2022/04/17 03:48:59;;;;;;;;;;;154.50;2227.20;;;;;;5035960;28;19921;-85
2022/04/17 03:51:25;;;;;;;7.22;3.15;;;154.50;2227.20;;;;;;5018022;28;19909;-86
2022/04/17 03:53:50;;;;;;;;;;;154.30;2252.80;;;;;;5018266;28;20034;-84
2022/04/17 03:56:16;;;;;;;6.13;2.83;;;154.40;2252.80;;;;;;5017869;28;19905;-83
2022/04/17 03:58:41;;;;;;;;;;;154.30;2252.80;;;;;;5036132;28;20408;-83
2022/04/17 04:01:07;;;;;;;9.60;3.30;;;154.30;2252.80;;;;;;5035521;28;19904;-85
2022/04/17 04:03:32;;;;;;;;;;;154.20;2252.80;;;;;;5018454;28;20101;-85
2022/04/17 04:05:58;;;;;;;5.35;3.08;;;154.40;2252.80;;;;;;5017794;28;20221;-85
2022/04/17 04:08:24;;;;;;;;;;;154.30;2252.80;;;;;;5018415;28;20108;-85
2022/04/17 04:10:49;;;;;;;5.60;3.17;;;154.40;2252.80;;;;;;5017511;28;19909;-86
2022/04/17 04:13:15;;;;;;;;;;;154.30;2252.80;;;;;;5018367;28;20470;-86
2022/04/17 04:15:41;;;;;;;6.00;2.97;;;154.10;2252.80;;;;;;5017513;28;19912;-85
2022/04/17 04:18:06;;;;;;;;;;;154.10;2252.80;;;;;;5015287;28;20037;-85
2022/04/17 04:20:32;;;;;;;7.63;2.85;;;154.10;2252.80;;;;;;5017426;28;19905;-86
2022/04/17 04:22:58;;;;;;;;;;;154.00;2252.80;;;;;;5017867;28;20030;-85
2022/04/17 04:25:23;;;;;;;4.97;2.47;;;154.10;2252.80;;;;;;5017115;28;19912;-85
2022/04/17 04:30:33;;;;;;;5.97;2.70;;;154.00;2252.80;;;;;;5033388;28;19944;-84
2022/04/17 04:33:00;;;;;;;;;;;154.00;2252.80;;;;;;5017497;28;20077;-86
2022/04/17 04:35:26;;;;;;;8.00;3.05;;;154.10;2252.80;;;;;;5017368;28;19975;-85
2022/04/17 04:37:52;;;;;;;6.07;2.97;;;154.10;2252.80;;;;;;5017131;28;20018;-85
2022/04/17 04:40:18;;;;;;;;;;;154.10;2252.80;;;;;;5017656;28;20052;-83
2022/04/17 04:42:44;;;;;;;10.57;3.95;;;154.40;2252.80;;;;;;5017146;28;19991;-84
2022/04/17 04:47:53;;;;;;;7.07;3.38;;;154.10;2252.80;;;;;;5034939;28;19963;-86
2022/04/17 04:50:19;;;;;;;;;;;154.20;2252.80;;;;;;5017250;28;20030;-85
2022/04/17 04:52:45;;;;;;;10.50;3.38;;;154.00;2252.80;;;;;;5034007;28;20426;-84
2022/04/17 04:55:11;;;;;;;;;;;154.10;2252.80;;;;;;5017755;28;20367;-84
2022/04/17 04:57:37;;;;;;;7.90;3.20;;;154.10;2252.80;;;;;;5038225;28;19905;-85
2022/04/17 05:00:07;;;;;;;6.50;3.08;;;153.90;2252.80;;;;;;5038650;28;20060;-85
2022/04/17 05:02:37;;;;;;;8.57;3.95;;;153.90;2252.80;;;;;;5020162;28;20498;-85
2022/04/17 05:05:08;;;;;;;5.15;3.05;;;153.90;2252.80;;;;;;5034309;28;20052;-85
2022/04/17 05:07:34;;;;;;;8.00;3.78;;;153.90;2252.80;;;;;;5015172;28;20033;-85
2022/04/17 05:10:02;;;;;;;;;;;154.00;2252.80;;;;;;5016649;28;20108;-86
2022/04/17 05:12:28;;;;;;;7.60;3.70;;;153.90;2252.80;;;;;;5016247;28;19920;-83
2022/04/17 05:14:54;;;;;;;;;;;153.90;2252.80;;;;;;5016256;28;20413;-87
2022/04/17 05:17:19;;;;;;;8.73;3.10;;;153.90;2252.80;;;;;;5015911;28;19916;-89
2022/04/17 05:19:45;;;;;;;;;;;154.10;2252.80;;;;;;5034200;28;20048;-86
2022/04/17 05:22:15;;;;;;;7.00;3.40;;;154.10;2252.80;;;;;;5015961;28;19905;-84
2022/04/17 05:24:43;;;;;;;5.38;2.83;;;154.20;2252.80;;;;;;5015822;28;20068;-83
2022/04/17 05:27:09;;;;;;;8.85;3.72;;;154.00;2252.80;;;;;;5015766;28;20019;-83
2022/04/17 05:29:34;;;;;;;;;;;154.00;2252.80;;;;;;5016098;28;20028;-85
2022/04/17 05:32:00;;;;;;;5.32;3.00;;;154.20;2252.80;;;;;;5015860;28;19917;-85
2022/04/17 05:34:27;;;;;;;5.25;2.95;;;154.00;2252.80;;;;;;5015938;28;20112;-87
2022/04/17 05:36:52;;;;;;;;;;;154.00;2252.80;;;;;;5015760;28;20088;-85
2022/04/17 05:39:18;;;;;;;9.57;3.45;;;154.00;2252.80;;;;;;5016400;28;20358;-88
2022/04/17 05:41:44;;;;;;;;;;;153.90;2252.80;;;;;;5017036;28;20030;-88
2022/04/17 05:44:11;;;;;;;6.15;3.10;;;154.10;2252.80;;;;;;5016037;28;19996;-85
2022/04/17 05:46:37;;;;;;;19.75;4.00;;;154.20;2252.80;;;;;;5016323;28;20473;-90
2022/04/17 05:49:03;;;;;;;;;;;154.10;2252.80;;;;;;5016368;28;20080;-86
2022/04/17 05:51:29;;;;;;;7.10;3.13;;;154.20;2252.80;;;;;;5015992;28;20011;-88
2022/04/17 05:53:54;;;;;;;;;;;154.30;2252.80;;;;;;5016469;28;20464;-86
2022/04/17 05:56:20;;;;;;;16.58;3.80;;;154.40;2227.20;;;;;;5033634;28;19919;-85
2022/04/17 05:58:46;;;;;;;;;;;154.30;2227.20;;;;;;5016683;28;20025;-85
2022/04/17 06:01:12;;;;;;;5.50;3.47;;;154.50;2227.20;;;;;;5015771;28;19916;-84
2022/04/17 06:03:37;;;;;;;;;;;154.50;2227.20;;;;;;5016347;28;20069;-86
2022/04/17 06:06:03;;;;;;;7.05;3.63;;;179.20;2201.60;;;;;;5033402;28;19906;-86
2022/04/17 06:08:28;;;;;;;;;;;179.20;2201.60;;;;;;5016258;28;20025;-84
2022/04/17 06:10:54;;;;;;;9.57;3.70;;;179.30;2176.00;;;;;;5015543;28;19909;-85
2022/04/17 06:13:20;;;;;;;;;;;179.40;2150.40;;;;;;5016431;28;20405;-87
2022/04/17 06:15:45;;;;;;;7.57;3.45;;;179.50;2150.40;;;;;;5016075;28;20307;-87
2022/04/17 06:18:11;;;;;;;;;;;179.60;2150.40;;;;;;5016499;28;20029;-88
2022/04/17 06:20:37;;;;;;;11.82;3.60;;;179.80;2099.20;;;;;;5016329;28;20273;-85
2022/04/17 06:23:03;;;;;;;7.28;2.90;;;179.80;2099.20;;;;;;5016258;28;20029;-88
2022/04/17 06:25:29;;;;;;;;;;;179.90;2048.00;;;;;;5016746;28;20021;-86
2022/04/17 06:27:56;;;;;;;7.63;3.50;;;180.10;2022.40;;;;;;5015852;28;19967;-86
2022/04/17 06:30:22;;;;;;;4.65;2.70;;;180.10;2022.40;;;;;;5015980;28;20492;-88
2022/04/17 06:32:49;;;;;;;6.22;3.20;;;205.10;2022.40;;;;;;5015850;28;20033;-87
2022/04/17 06:35:15;;;;;;;6.25;3.58;;;205.20;1971.20;;;;;;5015456;28;20061;-85
2022/04/17 06:37:47;;;;;;;9.20;3.20;;;205.30;1971.20;;;;;;5015663;28;20030;-87
2022/04/17 06:40:24;;;;;;;5.22;2.65;;;205.40;1920.00;;;;;;5015502;28;20029;-87
2022/04/17 06:42:50;;;;;;;;;;;205.50;1894.40;;;;;;5016081;28;20032;-87
2022/04/17 06:45:17;;;;;;;8.82;2.97;;;205.60;1894.40;;;;;;5033207;28;19966;-89
2022/04/17 06:47:44;;;;;;;11.32;3.45;;;230.40;1894.40;;;;;;5033072;28;20025;-83
2022/04/17 06:50:10;;;;;;;11.18;3.58;;;230.60;1868.80;;;;;;5019988;28;20096;-83
2022/04/17 06:52:35;;;;;;;6.85;3.83;;;230.60;1817.60;;;;;;5019718;28;20030;-84
2022/04/17 06:55:02;;;;;;;;;;;230.60;1817.60;;;;;;5019462;28;20056;-82
2022/04/17 06:57:32;;;;;;;4.28;2.67;;;230.70;1817.60;;;;;;5019430;28;19905;-83
2022/04/17 06:59:58;;;;;;;9.88;3.03;;;230.80;1817.60;;;;;;5016092;28;20508;-87
2022/04/17 07:02:25;;;;;;;4.60;2.53;;;230.90;1792.00;;;;;;5018757;28;20037;-85
2022/04/17 07:04:51;;;;;;;6.75;3.50;;;231.00;1792.00;;;;;;5019113;28;20057;-84
2022/04/17 07:07:16;;;;;;;6.70;3.17;;;231.20;1766.40;;;;;;5018781;28;20083;-83
2022/04/17 07:09:42;;;;;;;;;;;231.30;1766.40;;;;;;5019213;28;20465;-84
2022/04/17 07:12:08;;;;;;;8.65;3.25;;;256.00;1740.80;;;;;;5015722;28;19919;-89
2022/04/17 07:14:33;;;;;;;;;;;256.20;1715.20;;;;;;5016252;28;20359;-83
2022/04/17 07:16:59;;;;;;;8.35;3.38;;;256.20;1715.20;;;;;;5018430;28;19909;-83
2022/04/17 07:19:25;;;;;;;;;;;256.20;1715.20;;;;;;5018350;28;20044;-84
2022/04/17 07:21:51;;;;;;;23.63;4.32;;;256.30;1715.20;;;;;;5018388;28;20285;-80
2022/04/17 07:24:16;;;;;;;;;;;256.40;1689.60;;;;;;5018478;28;20458;-82
2022/04/17 07:26:42;;;;;;;5.57;3.08;;;256.50;1715.20;;;;;;5018751;28;19905;-81
2022/04/17 07:29:07;;;;;;;;;;;256.50;1689.60;;;;;;5018927;28;20104;-81
2022/04/17 07:31:34;;;;;;;6.15;3.10;;;256.70;1715.20;;;;;;5018988;28;19913;-83
2022/04/17 07:34:00;;;;;;;10.32;3.60;;;256.60;1664.00;;;;;;5018701;28;20095;-85
2022/04/17 07:36:26;;;;;;;6.80;3.50;;;256.70;1689.60;;;;;;5018938;28;20033;-84
2022/04/17 07:38:52;;;;;;;;;;;256.80;1664.00;;;;;;5018710;28;20365;-82
2022/04/17 07:41:17;;;;;;;10.27;3.33;;;256.90;1638.40;;;;;;5018410;28;19913;-79
2022/04/17 07:43:43;;;;;;;;;;;256.90;1638.40;;;;;;5036155;28;20033;-81
2022/04/17 07:46:09;;;;;;;10.52;3.63;;;281.60;1689.60;;;;;;5018126;28;19905;-84
2022/04/17 07:48:35;;;;;;;5.72;2.90;;;281.70;1664.00;;;;;;5035609;28;20524;-84
2022/04/17 07:51:01;;;;;;;9.52;3.15;;;281.80;1664.00;;;;;;5013085;28;20045;-83
2022/04/17 07:53:26;;;;;;;;;;;282.10;1664.00;;;;;;5015801;28;20053;-84
2022/04/17 07:55:52;;;;;;;4.95;3.15;;;282.10;1638.40;;;;;;5035269;28;19976;-83
2022/04/17 07:58:34;;;;;;;;;;;282.00;1638.40;;;;;;5018806;28;20026;-82
2022/04/17 08:01:10;;;;;;;10.35;4.10;;;282.00;1638.40;;;;;;5017766;28;19912;-83
2022/04/17 08:06:09;;;;;;;13.13;3.10;;;282.10;1612.80;;;;;;5033779;28;20040;-83
2022/04/17 08:08:37;;;;;;;6.55;3.00;;;282.10;1612.80;;;;;;5018233;28;20105;-84
2022/04/17 08:11:04;;;;;;;6.68;2.83;;;282.30;1612.80;;;;;;5018409;28;20035;-86
2022/04/17 08:13:30;;;;;;;12.50;3.65;;;282.20;1612.80;;;;;;5017780;28;20558;-87
2022/04/17 08:15:56;;;;;;;4.97;2.88;;;282.30;1587.20;;;;;;5018278;28;20045;-85
2022/04/17 08:18:22;;;;;;;7.30;3.63;;;282.50;1612.80;;;;;;5017913;28;20065;-84
2022/04/17 08:20:48;;;;;;;16.95;4.22;;;282.50;1587.20;;;;;;5018363;28;20032;-83
2022/04/17 08:23:13;;;;;;;;;;;307.30;1612.80;;;;;;5018265;28;20017;-82
2022/04/17 08:25:39;;;;;;;15.98;3.50;;;307.40;1587.20;;;;;;5018052;28;20380;-83
2022/04/17 08:28:05;;;;;;;;;;;307.40;1561.60;;;;;;5018291;28;20056;-83
2022/04/17 08:30:32;;;;;;;9.15;5.50;;;307.50;1561.60;;;;;;5035671;28;20001;-84
2022/04/17 08:32:59;;;;;;;13.95;3.28;;;307.40;1561.60;;;;;;5017942;28;20148;-85
2022/04/17 08:35:25;;;;;;;8.18;3.03;;;307.40;1561.60;;;;;;5017568;28;20072;-83
2022/04/17 08:37:52;;;;;;;14.32;3.28;;;307.60;1561.60;;;;;;5017763;28;20510;-80
2022/04/17 08:40:18;;;;;;;8.98;3.08;;;307.40;1536.00;;;;;;5016862;28;20025;-83
2022/04/17 08:42:44;;;;;;;7.80;2.83;;;307.60;1536.00;;;;;;5017166;28;20473;-84
2022/04/17 08:45:14;;;;;;;7.65;2.80;;;307.60;1536.00;;;;;;5017223;28;20363;-84
2022/04/17 08:47:41;;;;;;;6.38;3.00;;;307.60;1536.00;;;;;;5016543;28;20053;-83
2022/04/17 08:50:08;;;;;;;7.80;3.60;;;307.70;1536.00;;;;;;5018892;28;20054;-83
2022/04/17 08:52:34;;;;;;;8.95;3.25;;;307.80;1536.00;;;;;;5039288;28;20089;-82
2022/04/17 08:55:02;;;;;;;9.00;3.28;;;307.90;1536.00;;;;;;5039023;28;20041;-83
2022/04/17 08:57:28;;;;;;;4.97;2.97;;;308.00;1510.40;;;;;;5022294;28;20029;-84
2022/04/17 08:59:54;;;;;;;6.90;3.13;;;308.10;1510.40;;;;;;5017151;28;20022;-83
2022/04/17 09:02:20;;;;;;;11.05;2.83;;;308.00;1484.80;;;;;;5017041;28;20026;-83
2022/04/17 09:04:46;;;;;;;5.82;2.63;;;332.80;1536.00;;;;;;5017072;28;20021;-82
2022/04/17 09:07:13;;;;;;;5.63;3.00;;;332.90;1536.00;;;;;;5016703;28;20025;-82
2022/04/17 09:09:53;;;;;;;7.03;3.17;;;332.90;1510.40;;;;;;5016901;28;20116;-84
2022/04/17 09:12:23;;;;;;;8.50;3.88;;;332.90;1510.40;;;;;;5015888;28;20060;-82
2022/04/17 09:14:50;;;;;;;8.52;3.08;;;333.10;1536.00;;;;;;5034021;28;20022;-83
2022/04/17 09:17:18;;;;;;;14.10;3.63;;;333.20;1510.40;;;;;;5016042;28;20029;-82
2022/04/17 09:19:44;;;;;;;8.27;3.20;;;333.20;1484.80;;;;;;5016634;28;20431;-82
2022/04/17 09:22:12;;;;;;;5.10;3.08;;;333.20;1459.20;;;;;;5016942;28;20026;-84
2022/04/17 09:24:39;;;;;;;12.00;3.05;;;333.40;1484.80;;;;;;5016855;28;20021;-84
2022/04/17 09:27:07;;;;;;;6.82;2.83;;;333.30;1459.20;;;;;;5016477;28;20060;-84
2022/04/17 09:29:36;;;;;;;8.85;2.97;;;333.50;1484.80;;;;;;5016788;28;20508;-83
2022/04/17 09:32:06;;;;;;;10.88;2.80;;;333.50;1459.20;;;;;;5016281;28;20567;-82
2022/04/17 09:34:43;;;;;;;12.05;2.97;;;333.70;1484.80;;;;;;5016275;28;20056;-82
2022/04/17 09:37:17;;;;;;;12.52;3.05;;;358.40;1459.20;;;;;;5015704;28;20050;-83
2022/04/17 09:39:44;;;;;;;11.90;2.80;;;358.40;1408.00;;;;;;5015583;28;20053;-83
2022/04/17 09:42:10;;;;;;;15.60;2.95;;;358.50;1433.60;;;;;;5033379;28;20025;-84
2022/04/17 09:44:45;;;;;;;8.90;2.75;;;358.60;1433.60;;;;;;5033523;28;20018;-84
2022/04/17 09:47:12;;;;;;;7.68;2.50;;;358.70;1408.00;;;;;;5015614;28;20060;-82
2022/04/17 09:49:55;;;;;;;7.13;3.13;;;358.60;1408.00;;;;;;5015612;28;20105;-81
2022/04/17 09:52:26;;;;;;;5.53;2.85;;;358.40;1382.40;;;;;;5015250;28;20544;-81
2022/04/17 09:54:53;;;;;;;11.20;3.00;;;358.40;1382.40;;;;;;5033356;28;20101;-82
2022/04/17 09:57:33;;;;;;;5.75;2.72;;;358.40;1408.00;;;;;;5015358;28;20056;-81
2022/04/17 10:00:18;;;;;;;15.20;2.78;;;358.40;1382.40;;;;;;5015793;28;20025;-80
2022/04/17 10:02:46;;;;;;;7.18;2.33;;;358.50;1382.40;;;;;;5015419;28;20069;-82
2022/04/17 10:05:16;;;;;;;10.57;2.78;;;358.70;1382.40;;;;;;5015050;28;20103;-83
2022/04/17 10:07:44;;;;;;;8.35;2.25;;;358.40;1356.80;;;;;;5033137;28;20477;-81
2022/04/17 10:10:11;;;;;;;3.65;2.20;;;333.70;1356.80;;;;;;5014964;28;20057;-79
2022/04/17 10:12:39;;;;;;;9.90;3.55;;;358.60;1356.80;;;;;;5015200;28;20501;-79
2022/04/17 10:15:07;;;;;;;10.88;2.10;;;359.00;1331.20;;;;;;5032114;28;20060;-80
2022/04/17 10:17:34;;;;;;;14.02;5.57;;;359.00;1305.60;;;;;;5013889;28;20045;-78
2022/04/17 10:20:09;;;;;;;11.90;7.38;;;384.00;1331.20;;;;;;5015159;28;20497;-79
2022/04/17 10:22:38;;;;;;;7.88;5.00;;;384.30;1331.20;;;;;;5014979;28;20079;-78
2022/04/17 10:25:06;;;;;;;4.15;2.20;;;384.60;1305.60;;;;;;5014815;28;20057;-79
2022/04/17 10:27:41;;;;;;;6.47;1.95;;;384.70;1254.40;;;;;;5014469;28;20021;-78
2022/04/17 10:30:21;;;;;;;4.95;2.40;;;384.60;1280.00;;;;;;5013838;28;20068;-76
2022/04/17 10:33:11;;;;;;;5.10;2.40;;;384.60;1280.00;;;;;;5014268;28;20045;-77
2022/04/17 10:36:07;;;;;;;8.60;2.55;;;384.80;1280.00;;;;;;5029605;28;20100;-79
2022/04/17 10:38:50;;;;;;;5.68;2.10;;;384.90;1254.40;;;;;;5013904;28;20473;-78
2022/04/17 10:41:16;;;;;;;6.72;2.20;;;409.60;1280.00;;;;;;5008824;28;20390;-79
2022/04/17 10:43:50;;;;;;;10.35;2.03;;;409.60;1254.40;;;;;;5013805;28;20041;-78
2022/04/17 10:46:22;;;;;;;22.55;2.63;;;409.80;1254.40;;;;;;5009845;28;20029;-80
2022/04/17 10:48:56;;;;;;;5.82;2.72;;;409.80;1254.40;;;;;;5002827;28;20050;-80
2022/04/17 10:51:32;;;;;;;7.68;2.40;;;409.60;1254.40;;;;;;5023776;28;20022;-81
2022/04/17 10:54:03;;;;;;;;;;;409.70;1228.80;;;;;;5012622;28;20041;-79
2022/04/17 10:56:39;;;;;;;5.00;2.30;;;410.00;1228.80;;;;;;5005109;28;19912;-80
2022/04/17 10:59:14;;;;;;;6.93;1.95;;;410.10;1203.20;;;;;;4999459;28;20379;-80
2022/04/17 11:01:43;;;;;;;3.33;2.20;;;409.90;1228.80;;;;;;5021498;28;20025;-80
2022/04/17 11:04:21;;;;;;;10.68;2.22;;;410.50;1203.20;;;;;;5005119;28;20123;-80
2022/04/17 11:07:06;;;;;;;4.63;2.20;;;435.50;1203.20;;;;;;5022937;28;20029;-78
2022/04/17 11:09:33;;;;;;;9.82;3.08;;;435.50;1177.60;;;;;;5010405;28;20030;-79
2022/04/17 11:12:17;;;;;;;3.38;1.95;;;435.30;1177.60;;;;;;5011597;28;20037;-81
2022/04/17 11:15:02;;;;;;;9.57;2.33;;;410.40;1177.60;;;;;;5004489;28;20033;-81
2022/04/17 11:17:29;;;;;;;3.72;1.85;;;410.00;1152.00;;;;;;5007561;28;20033;-81
2022/04/17 11:19:56;;;;;;;3.17;1.77;;;410.50;1152.00;;;;;;5006069;28;20022;-81
2022/04/17 11:22:27;;;;;;;4.15;1.90;;;435.30;1152.00;;;;;;5004428;28;20071;-81
2022/04/17 11:24:56;;;;;;;6.63;2.08;;;435.50;1152.00;;;;;;5005680;28;20025;-80
2022/04/17 11:27:35;;;;;;;10.65;2.25;;;435.60;1126.40;;;;;;5002009;28;20041;-80
2022/04/17 11:30:03;;;;;;;7.43;2.25;;;435.50;1126.40;;;;;;5011654;28;20029;-81
2022/04/17 11:32:29;;;;;;;9.65;2.35;;;435.60;1126.40;;;;;;5003545;28;20516;-81
2022/04/17 11:35:01;;;;;;;7.25;2.90;;;435.30;1126.40;;;;;;5006286;28;20025;-79
2022/04/17 11:37:29;;;;;;;3.65;1.77;;;435.60;1126.40;;;;;;5006187;28;20112;-81
2022/04/17 11:40:10;;;;;;;4.20;1.95;;;435.20;1126.40;;;;;;5008516;28;20064;-81
2022/04/17 11:42:40;;;;;;;4.07;1.95;;;435.50;1100.80;;;;;;5006736;28;20500;-81
2022/04/17 11:45:06;;;;;;;4.15;1.67;;;435.50;1100.80;;;;;;5007819;28;20036;-80
2022/04/17 11:47:39;;;;;;;4.13;1.75;;;435.80;1100.80;;;;;;5008193;28;20033;-79
2022/04/17 11:50:21;;;;;;;4.50;1.40;;;435.80;1100.80;;;;;;5007763;28;20041;-80
2022/04/17 11:52:50;;;;;;;9.60;1.70;;;436.00;1100.80;;;;;;5007675;28;20044;-81
2022/04/17 11:55:22;;;;;;;10.82;1.90;;;436.10;1075.20;;;;;;5005604;28;20029;-79
2022/04/17 11:57:48;;;;;;;8.45;1.60;;;436.10;1075.20;;;;;;5007876;28;20029;-80
2022/04/17 12:00:14;;;;;;;4.28;1.90;;;460.80;1075.20;;;;;;5005788;28;20390;-80
2022/04/17 12:02:40;;;;;;;7.43;2.08;;;460.80;1075.20;;;;;;5008597;28;20041;-80
2022/04/17 12:05:12;;;;;;;2.03;1.38;;;436.00;1049.60;;;;;;5007896;28;20082;-80
2022/04/17 12:07:38;;;;;;;2.60;1.60;;;436.10;1024.00;;;;;;5008147;28;20038;-80
2022/04/17 12:10:10;;;;;;;9.25;2.03;;;460.80;1049.60;;;;;;5006168;28;20030;-80
2022/04/17 12:12:37;;;;;;;4.03;2.35;;;460.80;1049.60;;;;;;5007761;28;20037;-80
2022/04/17 12:15:05;;;;;;;7.72;1.52;;;460.80;1075.20;;;;;;5007557;28;20552;-80
2022/04/17 12:17:35;;;;;;;8.10;3.10;;;436.10;1024.00;;;;;;4999562;28;20525;-81
2022/04/17 12:20:08;;;;;;;11.40;2.60;;;460.80;1049.60;;;;;;5006223;28;20124;-80
2022/04/17 12:22:36;;;;;;;11.95;3.20;;;460.90;1049.60;;;;;;5025427;28;20018;-81
2022/04/17 12:25:03;;;;;;;12.80;2.53;;;460.90;1049.60;;;;;;5007047;28;20512;-80
2022/04/17 12:27:29;;;;;;;7.80;3.00;;;461.10;1024.00;;;;;;5022744;28;20036;-80
2022/04/17 12:29:57;;;;;;;7.20;1.98;;;461.10;1024.00;;;;;;5002959;28;20490;-81
2022/04/17 12:32:25;;;;;;;6.65;1.65;;;461.00;1024.00;;;;;;5005887;28;20045;-80
2022/04/17 12:34:58;;;;;;;7.90;2.67;;;461.20;1049.60;;;;;;5005597;28;20029;-80
2022/04/17 12:37:29;;;;;;;4.57;1.90;;;461.10;1024.00;;;;;;5005922;28;20482;-80
2022/04/17 12:40:13;;;;;;;3.20;1.83;;;461.20;1024.00;;;;;;5014920;28;20033;-80
2022/04/17 12:42:40;;;;;;;13.95;2.72;;;461.10;998.40;;;;;;5025460;28;20540;-80
2022/04/17 12:45:08;;;;;;;9.63;3.03;;;461.10;1024.00;;;;;;5020886;28;20037;-81
2022/04/17 12:47:36;;;;;;;5.85;2.25;;;461.00;998.40;;;;;;5015061;28;20029;-81
2022/04/17 12:50:11;;;;;;;25.88;5.30;;;460.80;1024.00;;;;;;5013762;28;20045;-79
2022/04/17 12:52:37;;;;;;;7.78;3.22;;;461.10;998.40;;;;;;5015950;28;20124;-80
2022/04/17 12:55:10;;;;;;;7.28;3.08;;;461.10;972.80;;;;;;5033772;28;20508;-80